createdAt,value
2019-01-13T00:03:29.730Z,12.00
2019-01-13T00:05:58.049Z,12.40
2019-01-13T00:08:26.366Z,13.00
2019-01-13T00:10:54.658Z,13.10
2019-01-13T00:13:22.960Z,11.20
2019-01-13T00:15:51.272Z,12.78
2019-01-13T00:18:19.591Z,13.10
2019-01-13T00:20:47.882Z,11.33
2019-01-13T00:23:16.218Z,11.60
2019-01-13T00:25:44.506Z,13.00
2019-01-13T00:28:12.812Z,13.10
2019-01-13T00:30:41.108Z,11.75
2019-01-13T00:33:09.409Z,12.65
2019-01-13T00:35:38.015Z,11.73
2019-01-13T00:38:06.301Z,12.33
2019-01-13T00:40:34.619Z,12.50
2019-01-13T00:43:03.242Z,12.78
2019-01-13T00:45:31.573Z,12.70
2019-01-13T00:47:59.878Z,12.80
2019-01-13T00:50:28.201Z,13.00
2019-01-13T00:52:56.753Z,13.08
2019-01-13T00:55:25.057Z,12.90
2019-01-13T00:57:53.417Z,12.93
2019-01-13T01:01:01.875Z,12.60
2019-01-13T01:03:30.160Z,12.63
2019-01-13T01:05:58.470Z,12.80
2019-01-13T01:09:06.814Z,13.60
2019-01-13T01:11:35.476Z,14.07
2019-01-13T01:14:43.814Z,14.05
2019-01-13T01:17:31.583Z,13.60
2019-01-13T01:19:59.880Z,13.30
2019-01-13T01:22:28.191Z,12.63
2019-01-13T01:24:56.491Z,12.25
2019-01-13T01:27:24.782Z,12.75
2019-01-13T01:29:53.110Z,12.68
2019-01-13T01:32:21.405Z,13.22
2019-01-13T01:34:49.726Z,13.30
2019-01-13T01:37:18.027Z,13.00
2019-01-13T01:39:46.630Z,14.03
2019-01-13T01:42:34.121Z,13.60
2019-01-13T01:45:02.445Z,14.95
2019-01-13T01:47:30.747Z,15.43
2019-01-13T01:49:59.047Z,14.03
2019-01-13T01:52:27.668Z,14.20
2019-01-13T01:54:55.969Z,14.20
2019-01-13T01:57:24.293Z,15.75
2019-01-13T01:59:52.591Z,16.00
2019-01-13T02:04:56.164Z,16.00
2019-01-13T02:07:24.415Z,16.48
2019-01-13T02:09:52.718Z,16.70
2019-01-13T02:12:21.038Z,17.48
2019-01-13T02:14:49.342Z,17.45
2019-01-13T02:17:17.651Z,17.50
2019-01-13T02:19:45.946Z,16.90
2019-01-13T02:22:14.252Z,18.57
2019-01-13T02:24:42.561Z,18.00
2019-01-13T02:27:10.861Z,18.17
2019-01-13T02:29:39.490Z,18.05
2019-01-13T02:32:07.785Z,18.50
2019-01-13T02:34:36.088Z,19.73
2019-01-13T02:37:23.593Z,18.92
2019-01-13T02:40:11.285Z,18.98
2019-01-13T02:42:58.967Z,20.65
2019-01-13T02:46:07.323Z,20.00
2019-01-13T02:48:35.623Z,20.03
2019-01-13T02:51:03.951Z,20.60
2019-01-13T02:53:32.604Z,20.90
2019-01-13T02:56:00.929Z,20.05
2019-01-13T02:58:29.549Z,19.47
2019-01-13T03:00:57.867Z,20.50
2019-01-13T03:03:38.752Z,20.92
2019-01-13T03:05:56.558Z,19.65
2019-01-13T03:08:24.862Z,20.77
2019-01-13T03:10:53.181Z,21.12
2019-01-13T03:13:40.599Z,21.35
2019-01-13T03:16:08.913Z,20.40
2019-01-13T03:18:37.225Z,21.48
2019-01-13T03:21:05.520Z,21.50
2019-01-13T03:23:33.827Z,23.25
2019-01-13T03:26:02.122Z,23.37
2019-01-13T03:31:23.508Z,22.95
2019-01-13T03:33:51.826Z,22.55
2019-01-13T03:36:20.125Z,21.95
2019-01-13T03:38:48.449Z,20.92
2019-01-13T03:41:16.752Z,22.07
2019-01-13T03:43:45.076Z,20.82
2019-01-13T03:46:32.825Z,20.48
2019-01-13T03:49:01.129Z,20.15
2019-01-13T03:51:48.804Z,20.68
2019-01-13T03:54:17.437Z,21.50
2019-01-13T03:56:45.746Z,20.92
2019-01-13T03:59:14.082Z,21.55
2019-01-13T04:04:29.706Z,22.10
2019-01-13T04:06:57.995Z,22.42
2019-01-13T04:09:26.285Z,22.40
2019-01-13T04:11:54.605Z,21.93
2019-01-13T04:14:22.906Z,21.37
2019-01-13T04:16:51.215Z,21.35
2019-01-13T04:19:19.516Z,21.10
2019-01-13T04:21:47.826Z,20.20
2019-01-13T04:24:16.123Z,19.37
2019-01-13T04:29:17.961Z,18.10
2019-01-13T04:31:46.282Z,17.60
2019-01-13T04:34:14.575Z,17.27
2019-01-13T04:36:43.236Z,17.52
2019-01-13T04:39:11.530Z,15.78
2019-01-13T04:41:39.824Z,15.87
2019-01-13T04:44:08.141Z,15.83
2019-01-13T04:46:38.547Z,15.35
2019-01-13T04:49:06.775Z,15.50
2019-01-13T04:51:35.093Z,17.15
2019-01-13T04:54:03.418Z,16.55
2019-01-13T04:56:31.721Z,17.98
2019-01-13T04:59:00.270Z,17.40
2019-01-13T05:01:34.429Z,18.20
2019-01-13T05:03:58.613Z,18.82
2019-01-13T05:06:26.930Z,18.60
2019-01-13T05:08:55.228Z,17.40
2019-01-13T05:11:23.543Z,17.40
2019-01-13T05:13:51.854Z,18.32
2019-01-13T05:16:20.170Z,18.60
2019-01-13T05:18:48.740Z,17.90
2019-01-13T05:21:17.054Z,18.00
2019-01-13T05:23:45.352Z,18.15
2019-01-13T05:26:13.666Z,17.10
2019-01-13T05:28:41.951Z,18.37
2019-01-13T05:31:10.315Z,18.57
2019-01-13T05:33:38.906Z,18.40
2019-01-13T05:36:07.209Z,19.10
2019-01-13T05:38:35.519Z,19.42
2019-01-13T05:41:23.433Z,18.77
2019-01-13T05:43:51.751Z,19.35
2019-01-13T05:46:20.057Z,19.05
2019-01-13T05:48:48.740Z,20.60
2019-01-13T05:51:17.047Z,20.97
2019-01-13T05:53:45.375Z,21.30
2019-01-13T05:56:13.672Z,21.20
2019-01-13T05:58:41.991Z,20.20
2019-01-13T06:01:29.729Z,19.83
2019-01-13T06:03:58.363Z,20.25
2019-01-13T06:06:26.959Z,21.50
2019-01-13T06:08:55.278Z,20.77
2019-01-13T06:11:23.583Z,21.65
2019-01-13T06:14:11.287Z,20.45
2019-01-13T06:16:39.590Z,21.15
2019-01-13T06:19:07.899Z,21.27
2019-01-13T06:24:10.216Z,22.20
2019-01-13T06:26:38.524Z,20.70
2019-01-13T06:29:25.933Z,20.00
2019-01-13T06:31:56.481Z,18.90
2019-01-13T06:34:24.270Z,18.50
2019-01-13T06:37:11.696Z,19.15
2019-01-13T06:39:40.002Z,18.80
2019-01-13T06:42:08.319Z,17.30
2019-01-13T06:44:36.614Z,16.27
2019-01-13T06:47:04.923Z,16.77
2019-01-13T06:52:22.208Z,15.20
2019-01-13T06:54:50.497Z,14.10
2019-01-13T06:57:18.818Z,13.80
2019-01-13T06:59:47.105Z,13.65
2019-01-13T07:02:15.390Z,11.97
2019-01-13T07:04:43.721Z,11.30
2019-01-13T07:07:12.022Z,10.35
2019-01-13T07:09:40.342Z,10.72
2019-01-13T07:12:27.765Z,10.88
2019-01-13T07:17:29.920Z,9.40
2019-01-13T07:19:58.574Z,9.25
2019-01-13T07:22:26.857Z,9.30
2019-01-13T07:24:55.162Z,9.08
2019-01-13T07:27:42.869Z,8.53
2019-01-13T07:30:51.232Z,8.18
2019-01-13T07:36:06.862Z,8.10
2019-01-13T07:38:35.150Z,7.75
2019-01-13T07:41:03.435Z,8.55
2019-01-13T07:43:31.753Z,7.75
2019-01-13T07:46:00.052Z,7.85
2019-01-13T07:48:28.659Z,7.30
2019-01-13T07:51:16.332Z,7.30
2019-01-13T07:53:44.644Z,7.20
2019-01-13T07:56:13.253Z,6.90
2019-01-13T08:01:28.873Z,7.17
2019-01-13T08:03:57.434Z,7.30
2019-01-13T08:06:25.736Z,7.58
2019-01-13T08:11:41.362Z,8.40
2019-01-13T08:14:09.659Z,8.28
2019-01-13T08:16:37.960Z,8.00
2019-01-13T08:19:06.555Z,8.85
2019-01-13T08:21:34.877Z,8.95
2019-01-13T08:24:03.166Z,9.50
2019-01-13T08:26:31.467Z,9.80
2019-01-13T08:28:59.761Z,9.75
2019-01-13T08:31:28.343Z,10.00
2019-01-13T08:33:56.653Z,10.40
2019-01-13T08:37:05.008Z,10.38
2019-01-13T08:39:33.311Z,10.40
2019-01-13T08:42:01.603Z,11.15
2019-01-13T08:44:49.038Z,10.90
2019-01-13T08:47:17.333Z,11.95
2019-01-13T08:49:45.644Z,12.10
2019-01-13T08:52:13.937Z,11.35
2019-01-13T08:54:42.246Z,11.95
2019-01-13T08:57:10.536Z,11.93
2019-01-13T08:59:38.840Z,12.18
2019-01-13T09:02:07.139Z,11.83
2019-01-13T09:04:54.581Z,12.50
2019-01-13T09:07:23.182Z,13.00
2019-01-13T09:10:10.875Z,12.90
2019-01-13T09:12:39.166Z,12.78
2019-01-13T09:15:47.524Z,11.95
2019-01-13T09:18:15.880Z,11.40
2019-01-13T09:20:44.201Z,10.80
2019-01-13T09:23:31.947Z,10.85
2019-01-13T09:26:00.269Z,11.25
2019-01-13T09:28:28.577Z,9.93
2019-01-13T09:30:56.895Z,9.63
2019-01-13T09:33:44.570Z,9.88
2019-01-13T09:36:12.892Z,11.00
2019-01-13T09:38:41.185Z,10.43
2019-01-13T09:41:09.482Z,9.05
2019-01-13T09:43:37.794Z,8.50
2019-01-13T09:46:06.100Z,8.65
2019-01-13T09:48:34.408Z,7.78
2019-01-13T09:51:02.976Z,7.30
2019-01-13T09:53:31.302Z,7.33
2019-01-13T09:55:59.640Z,7.25
2019-01-13T09:58:47.147Z,6.90
2019-01-13T10:01:34.824Z,9.23
2019-01-13T10:04:03.144Z,8.75
2019-01-13T10:06:31.448Z,7.95
2019-01-13T10:08:59.750Z,8.85
2019-01-13T10:17:10.245Z,9.78
2019-01-13T10:19:38.566Z,10.20
2019-01-13T10:22:06.866Z,8.70
2019-01-13T10:24:35.154Z,8.75
2019-01-13T10:29:37.072Z,9.98
2019-01-13T10:32:24.755Z,10.98
2019-01-13T10:34:53.049Z,10.60
2019-01-13T10:37:21.362Z,10.30
2019-01-13T10:39:49.674Z,12.60
2019-01-13T10:42:18.282Z,10.88
2019-01-13T10:45:05.954Z,11.18
2019-01-13T10:47:34.282Z,11.65
2019-01-13T10:50:21.944Z,10.45
2019-01-13T10:55:45.324Z,10.48
2019-01-13T10:58:13.629Z,9.70
2019-01-13T11:00:41.922Z,9.18
2019-01-13T11:03:10.230Z,9.55
2019-01-13T11:08:43.369Z,10.30
2019-01-13T11:11:31.032Z,8.73
2019-01-13T11:13:59.651Z,9.40
2019-01-13T11:16:28.248Z,7.70
2019-01-13T11:19:15.899Z,9.78
2019-01-13T11:22:03.723Z,9.20
2019-01-13T11:24:32.380Z,8.63
2019-01-13T11:27:20.288Z,8.60
2019-01-13T11:30:07.989Z,8.40
2019-01-13T11:32:36.533Z,9.17
2019-01-13T11:35:44.903Z,8.10
2019-01-13T11:38:13.540Z,8.20
2019-01-13T11:41:01.217Z,7.20
2019-01-13T11:43:29.522Z,8.10
2019-01-13T11:45:57.830Z,7.70
2019-01-13T11:48:26.150Z,7.05
2019-01-13T11:50:54.450Z,7.90
2019-01-13T11:53:22.773Z,6.80
2019-01-13T11:56:03.226Z,6.33
2019-01-13T11:58:31.538Z,7.67
2019-01-13T12:00:59.845Z,6.70
2019-01-13T12:03:47.973Z,7.65
2019-01-13T12:06:16.591Z,6.40
2019-01-13T12:09:04.295Z,7.30
2019-01-13T12:11:32.583Z,7.62
2019-01-13T12:14:01.189Z,6.60
2019-01-13T12:16:48.865Z,6.80
2019-01-13T12:19:17.151Z,7.15
2019-01-13T12:21:45.785Z,6.47
2019-01-13T12:24:14.360Z,6.20
2019-01-13T12:26:42.946Z,6.28
2019-01-13T12:29:11.236Z,6.92
2019-01-13T12:31:39.532Z,6.70
2019-01-13T12:34:08.191Z,7.22
2019-01-13T12:36:55.885Z,8.23
2019-01-13T12:39:24.496Z,6.90
2019-01-13T12:42:12.196Z,6.30
2019-01-13T12:47:27.831Z,8.60
2019-01-13T12:50:15.496Z,7.92
2019-01-13T12:53:03.202Z,6.80
2019-01-13T12:55:50.623Z,6.80
2019-01-13T12:58:18.932Z,5.20
2019-01-13T13:00:47.485Z,6.77
2019-01-13T13:03:16.170Z,6.97
2019-01-13T13:08:32.069Z,6.00
2019-01-13T13:11:00.369Z,5.47
2019-01-13T13:13:28.933Z,5.90
2019-01-13T13:15:57.245Z,6.03
2019-01-13T13:18:25.536Z,6.80
2019-01-13T13:20:53.838Z,6.70
2019-01-13T13:23:22.141Z,6.10
2019-01-13T13:25:50.443Z,6.10
2019-01-13T13:28:19.177Z,6.65
2019-01-13T13:33:38.925Z,6.33
2019-01-13T13:36:46.191Z,7.80
2019-01-13T13:41:48.000Z,6.23
2019-01-13T13:44:16.305Z,6.37
2019-01-13T13:46:44.602Z,6.10
2019-01-13T13:49:12.906Z,7.87
2019-01-13T13:51:41.197Z,4.72
2019-01-13T13:54:28.880Z,5.30
2019-01-13T13:56:57.177Z,7.05
2019-01-13T14:01:58.922Z,7.60
2019-01-13T14:04:27.225Z,7.00
2019-01-13T14:07:15.116Z,7.50
2019-01-13T14:09:43.476Z,6.30
2019-01-13T14:12:12.038Z,7.70
2019-01-13T14:17:14.594Z,7.05
2019-01-13T14:19:43.149Z,7.12
2019-01-13T14:22:11.449Z,6.92
2019-01-13T14:27:46.418Z,7.72
2019-01-13T14:30:55.008Z,7.20
2019-01-13T14:33:23.640Z,7.57
2019-01-13T14:35:51.927Z,5.67
2019-01-13T14:40:54.017Z,7.62
2019-01-13T14:43:22.321Z,6.70
2019-01-13T14:45:50.616Z,7.40
2019-01-13T14:53:27.152Z,6.42
2019-01-13T14:55:56.271Z,7.60
2019-01-13T14:58:26.066Z,7.47
2019-01-13T15:01:13.497Z,6.90
2019-01-13T15:03:41.814Z,5.90
2019-01-13T15:06:10.105Z,5.90
2019-01-13T15:08:38.427Z,7.50
2019-01-13T15:11:06.712Z,6.30
2019-01-13T15:16:22.325Z,5.33
2019-01-13T15:19:09.727Z,6.22
2019-01-13T15:21:38.035Z,4.60
2019-01-13T15:24:06.334Z,5.12
2019-01-13T15:26:34.950Z,5.03
2019-01-13T15:29:03.252Z,5.50
2019-01-13T15:34:25.085Z,5.80
2019-01-13T15:37:12.869Z,6.00
2019-01-13T15:39:41.408Z,6.53
2019-01-13T15:42:09.736Z,6.75
2019-01-13T15:44:38.041Z,6.97
2019-01-13T15:47:06.338Z,6.40
2019-01-13T15:52:41.599Z,8.38
2019-01-13T15:55:09.973Z,9.70
2019-01-13T15:57:38.294Z,11.33
2019-01-13T16:00:43.740Z,10.60
2019-01-13T16:06:05.702Z,9.33
2019-01-13T16:08:53.407Z,9.70
2019-01-13T16:11:21.710Z,9.90
2019-01-13T16:13:50.016Z,9.20
2019-01-13T16:16:37.687Z,8.33
2019-01-13T16:19:05.992Z,9.48
2019-01-13T16:21:34.290Z,9.10
2019-01-13T16:24:21.933Z,9.13
2019-01-13T16:26:50.229Z,10.45
2019-01-13T16:29:18.556Z,11.08
2019-01-13T16:31:46.849Z,12.65
2019-01-13T16:34:21.414Z,10.90
2019-01-13T16:36:45.477Z,10.03
2019-01-13T16:39:33.168Z,10.07
2019-01-13T16:42:01.447Z,9.70
2019-01-13T16:44:29.738Z,9.98
2019-01-13T16:46:58.057Z,8.70
2019-01-13T16:49:26.361Z,10.10
2019-01-13T16:51:54.668Z,8.30
2019-01-13T16:54:22.946Z,10.00
2019-01-13T16:56:51.257Z,9.23
2019-01-13T16:59:19.800Z,7.95
2019-01-13T17:01:48.120Z,8.40
2019-01-13T17:07:05.987Z,9.10
2019-01-13T17:09:34.345Z,10.03
2019-01-13T17:12:02.662Z,9.70
2019-01-13T17:14:30.940Z,9.10
2019-01-13T17:19:46.552Z,9.20
2019-01-13T17:22:15.167Z,8.70
2019-01-13T17:25:03.081Z,8.08
2019-01-13T17:27:31.682Z,7.00
2019-01-13T17:30:00.002Z,6.87
2019-01-13T17:32:47.658Z,6.40
2019-01-13T17:35:56.013Z,6.30
2019-01-13T17:38:24.323Z,4.42
2019-01-13T17:40:52.609Z,4.28
2019-01-13T17:43:20.911Z,3.45
2019-01-13T17:45:49.520Z,1.80
2019-01-13T17:48:17.813Z,2.00
2019-01-13T17:50:46.112Z,2.20
2019-01-13T17:53:14.410Z,1.95
2019-01-13T17:55:42.721Z,2.35
2019-01-13T17:58:11.006Z,2.10
2019-01-13T18:01:19.359Z,2.00
2019-01-13T18:04:07.023Z,2.00
2019-01-13T18:06:35.341Z,2.27
2019-01-13T18:12:11.705Z,2.10
2019-01-13T18:14:59.112Z,2.42
2019-01-13T18:17:27.408Z,1.83
2019-01-13T18:19:55.707Z,2.15
2019-01-13T18:22:43.352Z,2.67
2019-01-13T18:25:51.678Z,2.60
2019-01-13T18:28:39.434Z,2.40
2019-01-13T18:33:55.058Z,2.45
2019-01-13T18:36:42.678Z,2.05
2019-01-13T18:39:30.383Z,2.30
2019-01-13T18:41:58.676Z,2.30
2019-01-13T18:47:20.591Z,2.70
2019-01-13T18:52:22.536Z,2.70
2019-01-13T18:54:50.847Z,2.80
2019-01-13T18:57:19.141Z,2.20
2019-01-13T18:59:47.434Z,2.17
2019-01-13T19:02:15.749Z,2.80
2019-01-13T19:04:44.049Z,3.10
2019-01-13T19:07:12.740Z,2.20
2019-01-13T19:09:41.028Z,2.90
2019-01-13T19:12:09.341Z,2.90
2019-01-13T19:17:25.272Z,3.00
2019-01-13T19:19:53.557Z,2.60
2019-01-13T19:22:21.854Z,2.75
2019-01-13T19:27:23.723Z,2.98
2019-01-13T19:29:52.025Z,2.83
2019-01-13T19:32:20.656Z,2.90
2019-01-13T19:34:48.956Z,3.40
2019-01-13T19:37:17.274Z,3.58
2019-01-13T19:39:45.589Z,3.27
2019-01-13T19:42:33.257Z,3.40
2019-01-13T19:45:01.913Z,3.25
2019-01-13T19:47:30.207Z,3.57
2019-01-13T19:49:58.514Z,3.05
2019-01-13T19:52:26.796Z,3.27
2019-01-13T19:54:55.091Z,3.72
2019-01-13T19:57:23.424Z,3.08
2019-01-13T19:59:51.720Z,3.30
2019-01-13T20:02:20.025Z,3.10
2019-01-13T20:04:48.326Z,3.17
2019-01-13T20:07:36.021Z,3.10
2019-01-13T20:10:44.357Z,3.47
2019-01-13T20:16:45.522Z,3.10
2019-01-13T20:19:13.843Z,3.30
2019-01-13T20:21:42.143Z,3.25
2019-01-13T20:24:10.445Z,2.70
2019-01-13T20:26:38.757Z,3.02
2019-01-13T20:29:07.064Z,3.00
2019-01-13T20:31:35.396Z,3.00
2019-01-13T20:34:03.685Z,3.23
2019-01-13T20:39:45.727Z,2.75
2019-01-13T20:42:33.406Z,3.10
2019-01-13T20:45:20.835Z,3.55
2019-01-13T20:47:49.152Z,3.02
2019-01-13T20:50:36.891Z,3.00
2019-01-13T20:53:45.241Z,2.72
2019-01-13T20:56:33.257Z,5.62
2019-01-13T21:01:55.306Z,3.60
2019-01-13T21:04:43.075Z,3.55
2019-01-13T21:10:44.903Z,2.90
2019-01-13T21:13:13.718Z,2.90
2019-01-13T21:15:42.014Z,2.80
2019-01-13T21:18:29.448Z,3.30
2019-01-13T21:20:57.746Z,2.98
2019-01-13T21:23:26.064Z,3.02
2019-01-13T21:25:54.343Z,2.70
2019-01-13T21:31:11.953Z,3.30
2019-01-13T21:33:40.245Z,3.27
2019-01-13T21:36:08.541Z,3.20
2019-01-13T21:41:24.169Z,2.98
2019-01-13T21:44:12.075Z,2.75
2019-01-13T21:46:59.510Z,3.00
2019-01-13T21:49:27.806Z,2.92
2019-01-13T21:54:29.927Z,3.05
2019-01-13T21:56:58.244Z,3.08
2019-01-13T21:59:26.539Z,2.70
2019-01-13T22:01:55.154Z,3.45
2019-01-13T22:04:23.440Z,3.22
2019-01-13T22:06:51.729Z,3.20
2019-01-13T22:09:39.650Z,3.10
2019-01-13T22:12:07.932Z,3.17
2019-01-13T22:14:36.525Z,3.20
2019-01-13T22:17:44.848Z,3.20
2019-01-13T22:20:32.512Z,3.20
2019-01-13T22:23:19.957Z,3.22
2019-01-13T22:25:48.265Z,4.12
2019-01-13T22:31:03.891Z,3.40
2019-01-13T22:33:51.809Z,3.37
2019-01-13T22:36:20.125Z,3.10
2019-01-13T22:38:48.426Z,3.00
2019-01-13T22:41:16.727Z,3.23
2019-01-13T22:43:45.012Z,3.05
2019-01-13T22:46:13.318Z,2.95
2019-01-13T22:48:41.869Z,3.00
2019-01-13T22:51:10.178Z,2.50
2019-01-13T22:53:38.471Z,3.05
2019-01-13T22:56:06.780Z,2.80
2019-01-13T22:58:35.064Z,2.95
2019-01-13T23:01:43.671Z,3.62
2019-01-13T23:07:00.919Z,2.30
2019-01-13T23:09:48.964Z,2.42
2019-01-13T23:12:24.241Z,2.30
2019-01-13T23:14:52.537Z,3.00
2019-01-13T23:17:40.224Z,2.95
2019-01-13T23:20:48.542Z,3.00
2019-01-13T23:23:35.966Z,2.83
2019-01-13T23:26:44.310Z,3.05
2019-01-13T23:29:12.608Z,2.70
2019-01-13T23:31:40.891Z,2.70
2019-01-13T23:34:09.175Z,2.90
2019-01-13T23:36:37.782Z,3.25
2019-01-13T23:39:46.115Z,2.80
2019-01-13T23:42:33.787Z,2.95
2019-01-13T23:45:02.089Z,3.15
2019-01-13T23:47:30.393Z,2.85
2019-01-13T23:49:58.672Z,3.05
2019-01-13T23:52:26.989Z,3.10
2019-01-13T23:54:55.619Z,2.30
2019-01-13T23:57:23.923Z,2.42
2019-01-13T23:59:52.200Z,2.80
